Time;durP1;ratioP1;P1;durP2;ratioP2;P2;SDS_P1;SDS_P2;PMS_P1;PMS_P2;Temp;Humidity;BMP_temperature;BMP_pressure;BME280_temperature;BME280_humidity;BME280_pressure;Samples;Min_cycle;Max_cycle;Signal;HPM_P1;HPM_P2
2023/04/04 00:02:01;;;;;;;;;;;;;;;8.35;47.48;101975.75;5076588;28;19936;-62
2023/04/04 00:04:28;;;;;;;;;;;;;;;8.06;47.89;101989.00;5069473;28;19931;-62
2023/04/04 00:06:55;;;;;;;;;;;;;;;7.89;48.43;101980.97;5070067;28;20244;-62
2023/04/04 00:09:22;;;;;;;;;;;;;;;7.72;48.41;101980.28;5077219;28;20626;-63
2023/04/04 00:11:49;;;;;;;;;;;;;;;7.73;48.20;101983.84;5075544;28;19920;-62
2023/04/04 00:14:16;;;;;;;;;;;;;;;7.77;47.86;101982.25;5066481;28;20371;-62
2023/04/04 00:16:43;;;;;;;;;;;;;;;7.72;47.95;101983.03;5075686;28;19920;-62
2023/04/04 00:19:16;;;;;;;;;;;;;;;7.85;47.43;101984.47;5076858;28;19928;-63
2023/04/04 00:21:47;;;;;;;;;;;;;;;7.80;47.01;101981.72;5074229;28;19920;-62
2023/04/04 00:24:15;;;;;;;;;;;;;;;7.52;48.23;101984.78;5065662;28;19927;-62
2023/04/04 00:26:43;;;;;;;;;;;;;;;7.56;47.99;101984.03;5067745;28;19926;-63
2023/04/04 00:29:10;;;;;;;;;;;;;;;7.76;47.79;101984.16;5064748;28;20010;-62
2023/04/04 00:31:37;;;;;;;;;;;;;;;7.79;47.29;101988.31;5056669;28;19927;-63
2023/04/04 00:34:04;;;;;;;;;;;;;;;7.84;47.01;101978.19;5066496;28;19928;-61
2023/04/04 00:36:31;;;;;;;;;;;;;;;7.96;46.73;101989.78;5068323;28;19924;-63
2023/04/04 00:38:58;;;;;;;;;;;;;;;7.76;46.57;101986.91;5076424;28;19924;-63
2023/04/04 00:41:25;;;;;;;;;;;;;;;7.73;46.95;101981.13;5063628;28;19920;-63
2023/04/04 00:43:53;;;;;;;;;;;;;;;7.78;46.42;101981.97;5075952;28;19924;-63
2023/04/04 00:46:21;;;;;;;;;;;;;;;7.75;46.68;101984.41;5072005;28;19928;-63
2023/04/04 00:48:48;;;;;;;;;;;;;;;7.89;46.29;101982.88;5058728;28;19931;-63
2023/04/04 00:51:16;;;;;;;;;;;;;;;7.85;46.01;101982.56;5056156;28;19921;-62
2023/04/04 00:53:43;;;;;;;;;;;;;;;7.72;46.35;101982.22;5067305;28;19924;-63
2023/04/04 00:56:10;;;;;;;;;;;;;;;7.65;46.26;101982.41;5074925;28;19935;-62
2023/04/04 00:58:37;;;;;;;;;;;;;;;7.67;46.45;101982.19;5069060;28;19920;-63
2023/04/04 01:01:05;;;;;;;;;;;;;;;7.39;46.65;101979.75;5055253;28;19920;-62
2023/04/04 01:03:34;;;;;;;;;;;;;;;7.59;46.56;101974.44;5054716;28;19925;-62
2023/04/04 01:06:01;;;;;;;;;;;;;;;7.69;46.26;101971.75;5051600;28;19939;-62
2023/04/04 01:08:29;;;;;;;;;;;;;;;7.47;46.78;101976.53;5058911;28;19947;-62
2023/04/04 01:10:56;;;;;;;;;;;;;;;7.50;46.89;101968.63;5063110;28;20409;-62
2023/04/04 01:13:23;;;;;;;;;;;;;;;7.54;46.68;101963.44;5073188;28;20485;-62
2023/04/04 01:15:51;;;;;;;;;;;;;;;7.60;46.50;101956.91;5073701;28;19939;-63
2023/04/04 01:18:19;;;;;;;;;;;;;;;7.58;46.88;101961.81;5058166;28;19937;-62
2023/04/04 01:20:51;;;;;;;;;;;;;;;7.37;47.20;101965.50;5070864;28;19932;-64
2023/04/04 01:23:19;;;;;;;;;;;;;;;7.52;46.51;101969.19;5054860;28;19925;-64
2023/04/04 01:25:47;;;;;;;;;;;;;;;7.72;46.24;101958.34;5044767;28;20295;-64
2023/04/04 01:28:14;;;;;;;;;;;;;;;7.42;46.55;101963.63;5074014;28;19927;-63
2023/04/04 01:30:41;;;;;;;;;;;;;;;7.42;46.80;101965.53;5045629;28;19932;-63
2023/04/04 01:33:12;;;;;;;;;;;;;;;7.30;47.07;101973.09;5070151;28;19929;-63
2023/04/04 01:35:41;;;;;;;;;;;;;;;7.32;47.12;101960.78;5061790;28;19932;-63
2023/04/04 01:38:14;;;;;;;;;;;;;;;7.18;47.08;101970.56;5070918;28;19925;-63
2023/04/04 01:40:45;;;;;;;;;;;;;;;7.19;47.01;101976.84;5049491;28;19939;-63
2023/04/04 01:43:12;;;;;;;;;;;;;;;7.41;47.19;101970.19;5074561;28;19920;-63
2023/04/04 01:45:42;;;;;;;;;;;;;;;7.19;47.61;101974.09;5069722;28;20434;-63
2023/04/04 01:48:12;;;;;;;;;;;;;;;7.10;47.79;101978.38;5073040;28;20419;-63
2023/04/04 01:50:40;;;;;;;;;;;;;;;7.14;47.48;101980.38;5071230;28;19928;-63
2023/04/04 01:53:08;;;;;;;;;;;;;;;7.00;47.99;101976.41;5068324;28;19921;-62
2023/04/04 01:55:35;;;;;;;;;;;;;;;7.13;47.84;101984.19;5053668;28;19935;-63
2023/04/04 01:58:02;;;;;;;;;;;;;;;7.11;48.40;101977.31;5060947;28;20371;-62
2023/04/04 02:00:30;;;;;;;;;;;;;;;7.23;47.95;101978.81;5071297;28;19951;-62
2023/04/04 02:02:57;;;;;;;;;;;;;;;7.24;47.54;101974.13;5067487;28;19932;-62
2023/04/04 02:05:24;;;;;;;;;;;;;;;7.15;48.08;101981.22;5065739;28;19931;-62
2023/04/04 02:07:51;;;;;;;;;;;;;;;7.06;47.97;101972.59;5073262;28;19920;-63
2023/04/04 02:10:29;;;;;;;;;;;;;;;6.81;48.09;101977.84;5056167;28;19925;-63
2023/04/04 02:12:56;;;;;;;;;;;;;;;6.87;48.32;101970.50;5070248;28;19925;-62
2023/04/04 02:15:24;;;;;;;;;;;;;;;6.98;47.76;101967.59;5060597;28;19924;-62
2023/04/04 02:17:51;;;;;;;;;;;;;;;6.91;48.53;101964.25;5073065;28;19920;-63
2023/04/04 02:20:19;;;;;;;;;;;;;;;6.87;47.80;101957.63;5085634;28;19935;-64
2023/04/04 02:22:49;;;;;;;;;;;;;;;7.00;47.41;101964.59;5073499;28;19936;-63
2023/04/04 02:25:17;;;;;;;;;;;;;;;7.07;46.96;101970.69;5069446;28;19921;-63
2023/04/04 02:27:44;;;;;;;;;;;;;;;6.97;46.92;101954.19;5052287;28;19924;-62
2023/04/04 02:30:12;;;;;;;;;;;;;;;6.87;47.22;101951.34;5066607;28;19920;-62
2023/04/04 02:32:40;;;;;;;;;;;;;;;6.94;46.42;101952.75;5072936;28;19950;-62
2023/04/04 02:35:08;;;;;;;;;;;;;;;6.81;47.07;101951.28;5073185;28;19920;-62
2023/04/04 02:37:36;;;;;;;;;;;;;;;6.80;46.59;101962.47;5072906;28;19921;-62
2023/04/04 02:40:08;;;;;;;;;;;;;;;6.82;46.99;101952.09;5073711;28;19927;-62
2023/04/04 02:42:40;;;;;;;;;;;;;;;6.82;46.92;101955.69;5072611;28;19920;-62
2023/04/04 02:45:08;;;;;;;;;;;;;;;6.59;46.98;101964.19;5074825;28;19940;-63
2023/04/04 02:47:36;;;;;;;;;;;;;;;6.76;46.49;101959.44;5053044;28;19929;-63
2023/04/04 02:50:04;;;;;;;;;;;;;;;6.74;46.62;101960.78;5059793;28;19935;-63
2023/04/04 02:52:31;;;;;;;;;;;;;;;6.53;47.10;101948.78;5062991;28;19925;-63
2023/04/04 02:55:05;;;;;;;;;;;;;;;6.73;46.43;101946.25;5060337;28;19924;-62
2023/04/04 02:57:36;;;;;;;;;;;;;;;6.61;46.82;101936.53;5047582;28;20383;-63
2023/04/04 03:00:03;;;;;;;;;;;;;;;6.55;46.79;101948.53;5073406;28;19928;-64
2023/04/04 03:02:30;;;;;;;;;;;;;;;6.44;46.98;101949.50;5067123;28;19932;-62
2023/04/04 03:04:58;;;;;;;;;;;;;;;6.52;47.02;101951.78;5067024;28;19920;-62
2023/04/04 03:07:25;;;;;;;;;;;;;;;6.52;47.39;101946.31;5067940;28;19925;-62
2023/04/04 03:09:53;;;;;;;;;;;;;;;6.59;47.06;101947.75;5056424;28;19920;-62
2023/04/04 03:12:20;;;;;;;;;;;;;;;6.45;47.14;101945.69;5071311;28;19944;-63
2023/04/04 03:14:49;;;;;;;;;;;;;;;6.56;47.55;101947.44;5060732;28;19932;-63
2023/04/04 03:17:17;;;;;;;;;;;;;;;6.50;47.65;101938.34;5071420;28;19920;-62
2023/04/04 03:19:45;;;;;;;;;;;;;;;6.53;47.43;101946.06;5072330;28;19939;-62
2023/04/04 03:22:12;;;;;;;;;;;;;;;6.51;47.12;101940.00;5054553;28;20299;-62
2023/04/04 03:24:39;;;;;;;;;;;;;;;6.53;47.63;101942.50;5073577;28;19931;-62
2023/04/04 03:27:07;;;;;;;;;;;;;;;6.45;47.86;101940.22;5071201;28;19927;-62
2023/04/04 03:29:34;;;;;;;;;;;;;;;6.45;48.10;101934.75;5067315;28;20291;-62
2023/04/04 03:32:02;;;;;;;;;;;;;;;6.47;47.82;101943.50;5065726;28;19921;-62
2023/04/04 03:34:30;;;;;;;;;;;;;;;6.49;48.25;101942.16;5060956;28;19933;-62
2023/04/04 03:36:57;;;;;;;;;;;;;;;6.22;48.36;101952.25;5071033;28;20287;-63
2023/04/04 03:39:28;;;;;;;;;;;;;;;6.10;48.32;101951.53;5071794;28;19939;-63
2023/04/04 03:41:59;;;;;;;;;;;;;;;6.21;48.25;101949.75;5068026;28;19927;-62
2023/04/04 03:44:26;;;;;;;;;;;;;;;6.22;48.28;101955.00;5057797;28;19921;-63
2023/04/04 03:46:54;;;;;;;;;;;;;;;6.33;47.96;101947.75;5060034;28;19947;-62
2023/04/04 03:49:22;;;;;;;;;;;;;;;6.13;48.01;101959.25;5069294;28;19921;-63
2023/04/04 03:51:49;;;;;;;;;;;;;;;6.10;48.22;101954.25;5079667;28;19931;-63
2023/04/04 03:54:16;;;;;;;;;;;;;;;6.04;48.36;101954.47;5058558;28;19927;-62
2023/04/04 03:56:43;;;;;;;;;;;;;;;6.22;47.90;101952.25;5062524;28;20311;-62
2023/04/04 03:59:11;;;;;;;;;;;;;;;6.17;47.86;101960.38;5075697;28;19920;-63
2023/04/04 04:01:38;;;;;;;;;;;;;;;6.27;47.80;101954.22;5070571;28;20391;-62
2023/04/04 04:04:05;;;;;;;;;;;;;;;6.11;47.80;101960.56;5069151;28;19924;-62
2023/04/04 04:06:32;;;;;;;;;;;;;;;6.05;47.95;101965.13;5075058;28;19920;-63
2023/04/04 04:09:00;;;;;;;;;;;;;;;6.20;47.69;101961.78;5069128;28;20378;-62
2023/04/04 04:11:27;;;;;;;;;;;;;;;6.08;47.66;101961.91;5065150;28;19951;-62
2023/04/04 04:13:54;;;;;;;;;;;;;;;5.87;48.03;101968.19;5073585;28;19925;-62
2023/04/04 04:16:22;;;;;;;;;;;;;;;5.74;48.91;101977.53;5074287;28;19924;-62
2023/04/04 04:18:50;;;;;;;;;;;;;;;5.94;48.97;101981.66;5074161;28;19935;-62
2023/04/04 04:21:27;;;;;;;;;;;;;;;5.63;49.66;101983.91;5065565;28;20017;-62
2023/04/04 04:23:54;;;;;;;;;;;;;;;5.78;49.73;101990.69;5055154;28;19921;-61
2023/04/04 04:26:21;;;;;;;;;;;;;;;5.89;49.03;101998.84;5071584;28;19927;-62
2023/04/04 04:28:49;;;;;;;;;;;;;;;5.73;49.21;101992.28;5066813;28;19924;-61
2023/04/04 04:31:21;;;;;;;;;;;;;;;5.77;49.19;102000.00;5072337;28;19927;-63
2023/04/04 04:33:51;;;;;;;;;;;;;;;5.80;49.53;102007.69;5059589;28;19925;-63
2023/04/04 04:36:21;;;;;;;;;;;;;;;5.36;51.70;102003.97;5070473;28;19935;-63
2023/04/04 04:38:56;;;;;;;;;;;;;;;5.25;52.13;102008.44;5055802;28;19932;-63
2023/04/04 04:41:26;;;;;;;;;;;;;;;5.20;52.23;102002.03;5063389;28;19928;-62
2023/04/04 04:43:54;;;;;;;;;;;;;;;5.08;52.36;102006.75;5060135;28;19921;-63
2023/04/04 04:46:24;;;;;;;;;;;;;;;5.02;53.12;102013.19;5065947;28;20477;-61
2023/04/04 04:48:52;;;;;;;;;;;;;;;5.17;53.19;102021.66;5060707;28;19921;-63
2023/04/04 04:51:24;;;;;;;;;;;;;;;5.13;52.94;102018.59;5072035;28;19921;-64
2023/04/04 04:53:53;;;;;;;;;;;;;;;5.17;53.29;102011.56;5059163;28;19924;-63
2023/04/04 04:56:22;;;;;;;;;;;;;;;5.23;53.44;102007.84;5071146;28;19929;-64
2023/04/04 04:58:52;;;;;;;;;;;;;;;5.19;52.86;102009.44;5063844;28;20263;-62
2023/04/04 05:01:22;;;;;;;;;;;;;;;5.31;52.67;102017.53;5072465;28;19928;-62
2023/04/04 05:03:49;;;;;;;;;;;;;;;5.42;52.45;102012.00;5074805;28;19924;-63
2023/04/04 05:06:25;;;;;;;;;;;;;;;5.73;51.30;102011.44;5071740;28;19925;-63
2023/04/04 05:08:53;;;;;;;;;;;;;;;5.43;51.83;102008.19;5074572;28;19920;-63
2023/04/04 05:11:25;;;;;;;;;;;;;;;5.41;52.02;101999.41;5072797;28;19932;-63
2023/04/04 05:13:54;;;;;;;;;;;;;;;5.38;51.94;102010.00;5073218;28;19920;-63
2023/04/04 05:16:23;;;;;;;;;;;;;;;5.27;51.99;102002.72;5072682;28;19928;-62
2023/04/04 05:18:51;;;;;;;;;;;;;;;5.27;52.05;102002.72;5055272;28;19929;-62
2023/04/04 05:21:18;;;;;;;;;;;;;;;5.20;51.83;102002.03;5072816;28;19928;-64
2023/04/04 05:23:47;;;;;;;;;;;;;;;5.30;51.21;102003.03;5073825;28;20386;-63
2023/04/04 05:26:16;;;;;;;;;;;;;;;5.41;51.36;102004.03;5066855;28;19924;-63
2023/04/04 05:28:45;;;;;;;;;;;;;;;5.15;51.79;101985.56;5070023;28;20540;-62
2023/04/04 05:31:12;;;;;;;;;;;;;;;5.29;51.40;101989.63;5068688;28;19925;-62
2023/04/04 05:33:40;;;;;;;;;;;;;;;5.38;51.46;101989.00;5056975;28;19924;-62
2023/04/04 05:36:21;;;;;;;;;;;;;;;5.25;51.21;101980.28;5069477;28;19924;-63
2023/04/04 05:38:56;;;;;;;;;;;;;;;5.37;51.66;101986.50;5073030;28;19925;-62
2023/04/04 05:41:28;;;;;;;;;;;;;;;5.27;51.40;101984.44;5070131;28;19920;-62
2023/04/04 05:44:01;;;;;;;;;;;;;;;5.30;50.73;101981.19;5064809;28;19924;-62
2023/04/04 05:46:28;;;;;;;;;;;;;;;5.35;50.55;101985.94;5070714;28;19920;-62
2023/04/04 05:48:56;;;;;;;;;;;;;;;5.36;50.34;101987.56;5073436;28;19935;-65
2023/04/04 05:51:24;;;;;;;;;;;;;;;5.55;50.52;101994.44;5050267;28;20371;-65
2023/04/04 05:54:08;;;;;;;;;;;;;;;5.43;50.37;102005.47;5071505;28;19921;-64
2023/04/04 05:56:36;;;;;;;;;;;;;;;5.47;50.13;102006.59;5070965;28;20291;-65
2023/04/04 05:59:09;;;;;;;;;;;;;;;5.55;49.75;102010.84;5072332;28;19920;-66
2023/04/04 06:01:49;;;;;;;;;;;;;;;5.56;49.38;102013.31;5066364;28;20289;-66
2023/04/04 06:04:17;;;;;;;;;;;;;;;5.62;49.55;102008.78;5062278;28;20299;-63
2023/04/04 06:06:45;;;;;;;;;;;;;;;5.53;49.49;102023.91;5065243;28;19920;-65
2023/04/04 06:09:13;;;;;;;;;;;;;;;5.39;50.31;102020.69;5069168;28;19936;-67
2023/04/04 06:11:40;;;;;;;;;;;;;;;5.42;50.35;102022.13;5052406;28;19928;-66
2023/04/04 06:14:10;;;;;;;;;;;;;;;5.37;50.34;102030.22;5068738;28;19921;-67
2023/04/04 06:16:40;;;;;;;;;;;;;;;5.52;49.83;102022.28;5059371;28;20327;-67
2023/04/04 06:19:07;;;;;;;;;;;;;;;5.33;50.15;102042.72;5053573;28;19932;-66
2023/04/04 06:21:34;;;;;;;;;;;;;;;5.17;50.41;102040.78;5063949;28;19927;-66
2023/04/04 06:24:02;;;;;;;;;;;;;;;5.34;49.93;102039.72;5065023;28;19961;-63
2023/04/04 06:26:29;;;;;;;;;;;;;;;5.46;49.96;102045.94;5067302;28;19924;-63
2023/04/04 06:28:57;;;;;;;;;;;;;;;5.52;50.06;102047.72;5061396;28;19924;-59
2023/04/04 06:31:28;;;;;;;;;;;;;;;5.41;49.85;102050.50;5065294;28;19920;-72
2023/04/04 06:34:01;;;;;;;;;;;;;;;5.20;50.54;102054.78;5048658;28;19925;-65
2023/04/04 06:36:32;;;;;;;;;;;;;;;5.53;50.18;102057.56;5064405;28;19924;-66
2023/04/04 06:39:02;;;;;;;;;;;;;;;5.46;50.34;102058.78;5068133;28;19924;-66
2023/04/04 06:41:29;;;;;;;;;;;;;;;5.51;49.75;102056.97;5060707;28;19920;-59
2023/04/04 06:43:57;;;;;;;;;;;;;;;5.63;49.74;102065.91;5064872;28;19936;-61
2023/04/04 06:46:25;;;;;;;;;;;;;;;5.64;50.05;102062.13;5061066;28;19939;-61
2023/04/04 06:48:53;;;;;;;;;;;;;;;5.84;49.33;102066.28;5069133;28;20398;-58
2023/04/04 06:51:20;;;;;;;;;;;;;;;6.11;49.61;102067.25;5064470;28;19931;-60
2023/04/04 06:53:48;;;;;;;;;;;;;;;6.14;48.62;102070.31;5056332;28;19943;-60
2023/04/04 06:56:15;;;;;;;;;;;;;;;6.38;48.04;102070.94;5054107;28;19925;-60
2023/04/04 06:58:42;;;;;;;;;;;;;;;6.17;48.77;102069.78;5066079;28;19924;-60
2023/04/04 07:01:10;;;;;;;;;;;;;;;6.07;49.56;102075.13;5048705;28;20348;-67
2023/04/04 07:03:37;;;;;;;;;;;;;;;5.77;48.77;102079.25;5065212;28;19925;-66
2023/04/04 07:06:04;;;;;;;;;;;;;;;5.61;49.51;102072.72;5068078;28;19927;-65
2023/04/04 07:08:32;;;;;;;;;;;;;;;5.84;48.94;102086.22;5068816;28;19928;-67
2023/04/04 07:11:03;;;;;;;;;;;;;;;5.87;48.66;102085.75;5070784;28;19924;-66
2023/04/04 07:13:30;;;;;;;;;;;;;;;5.81;48.91;102086.72;5069655;28;19932;-60
2023/04/04 07:15:58;;;;;;;;;;;;;;;5.72;49.53;102085.47;5061956;28;19931;-61
2023/04/04 07:18:26;;;;;;;;;;;;;;;5.73;48.96;102087.13;5066464;28;20292;-60
2023/04/04 07:20:53;;;;;;;;;;;;;;;5.55;48.76;102082.72;5067140;28;19924;-60
2023/04/04 07:23:20;;;;;;;;;;;;;;;5.68;48.90;102098.78;5063418;28;19928;-66
2023/04/04 07:25:47;;;;;;;;;;;;;;;5.92;49.33;102088.56;5067357;28;19924;-65
2023/04/04 07:28:14;;;;;;;;;;;;;;;6.19;48.10;102089.53;5066419;28;19925;-61
2023/04/04 07:30:41;;;;;;;;;;;;;;;5.98;47.12;102073.88;5052657;28;19928;-61
2023/04/04 07:33:09;;;;;;;;;;;;;;;5.86;48.06;102080.53;5064375;28;19921;-59
2023/04/04 07:35:36;;;;;;;;;;;;;;;6.17;47.39;102080.75;5067887;28;19924;-61
2023/04/04 07:38:04;;;;;;;;;;;;;;;6.24;47.77;102080.59;5079279;28;20290;-61
2023/04/04 07:40:31;;;;;;;;;;;;;;;6.03;47.48;102076.72;5073668;28;20639;-66
2023/04/04 07:42:58;;;;;;;;;;;;;;;6.22;47.33;102082.75;5072953;28;19924;-66
2023/04/04 07:45:25;;;;;;;;;;;;;;;6.25;47.04;102082.22;5070594;28;20268;-61
2023/04/04 07:47:53;;;;;;;;;;;;;;;6.31;46.65;102090.25;5063237;28;20402;-60
2023/04/04 07:50:21;;;;;;;;;;;;;;;6.22;45.79;102080.00;5048258;28;19925;-61
2023/04/04 07:52:51;;;;;;;;;;;;;;;6.34;45.86;102075.25;5075605;28;19924;-60
2023/04/04 07:55:19;;;;;;;;;;;;;;;6.46;45.68;102081.44;5057421;28;19936;-60
2023/04/04 07:57:46;;;;;;;;;;;;;;;6.06;45.63;102073.47;5072288;28;19931;-63
2023/04/04 08:00:13;;;;;;;;;;;;;;;6.00;45.83;102071.72;5072872;28;19929;-62
2023/04/04 08:02:41;;;;;;;;;;;;;;;6.07;45.86;102077.84;5073769;28;19947;-61
2023/04/04 08:05:09;;;;;;;;;;;;;;;6.12;45.84;102071.66;5069004;28;19921;-62
2023/04/04 08:07:36;;;;;;;;;;;;;;;6.05;45.54;102068.25;5040457;28;19927;-61
2023/04/04 08:10:04;;;;;;;;;;;;;;;5.91;46.64;102075.97;5069402;28;19924;-61
2023/04/04 08:12:31;;;;;;;;;;;;;;;6.16;45.74;102070.88;5066226;28;19924;-68
2023/04/04 08:14:58;;;;;;;;;;;;;;;5.95;45.32;102068.91;5066018;28;19928;-67
2023/04/04 08:17:25;;;;;;;;;;;;;;;6.02;45.49;102066.00;5071218;28;19924;-66
2023/04/04 08:19:52;;;;;;;;;;;;;;;6.05;44.87;102057.31;5058371;28;20681;-62
2023/04/04 08:22:19;;;;;;;;;;;;;;;6.04;45.13;102061.97;5068119;28;19931;-66
2023/04/04 08:24:46;;;;;;;;;;;;;;;6.34;44.65;102056.94;5068911;28;19920;-66
2023/04/04 08:27:14;;;;;;;;;;;;;;;6.33;44.39;102062.66;5071572;28;19931;-66
2023/04/04 08:29:42;;;;;;;;;;;;;;;6.33;44.83;102063.47;5050182;28;19924;-66
2023/04/04 08:32:10;;;;;;;;;;;;;;;6.19;45.01;102058.63;5083762;28;19927;-67
2023/04/04 08:34:37;;;;;;;;;;;;;;;6.40;44.22;102064.13;5063342;28;19920;-67
2023/04/04 08:37:05;;;;;;;;;;;;;;;6.52;43.84;102064.00;5066069;28;19920;-66
2023/04/04 08:39:32;;;;;;;;;;;;;;;6.47;43.99;102072.13;5061150;28;20404;-66
2023/04/04 08:42:04;;;;;;;;;;;;;;;6.61;43.92;102063.31;5052117;28;20387;-66
2023/04/04 08:44:32;;;;;;;;;;;;;;;6.84;43.53;102054.00;5068375;28;20378;-63
2023/04/04 08:47:08;;;;;;;;;;;;;;;6.76;43.17;102065.41;5060750;28;19921;-63
2023/04/04 08:49:47;;;;;;;;;;;;;;;6.59;43.75;102076.41;5056444;28;19924;-66
2023/04/04 08:52:15;;;;;;;;;;;;;;;6.49;44.21;102075.44;5063606;28;19953;-62
2023/04/04 08:54:42;;;;;;;;;;;;;;;6.50;43.47;102077.94;5049016;28;20299;-61
2023/04/04 08:57:09;;;;;;;;;;;;;;;6.73;43.25;102079.59;5069839;28;19920;-62
2023/04/04 08:59:36;;;;;;;;;;;;;;;6.68;42.91;102072.16;5052747;28;19928;-62
2023/04/04 09:02:10;;;;;;;;;;;;;;;6.92;42.84;102072.75;5068630;28;19924;-62
2023/04/04 09:04:38;;;;;;;;;;;;;;;6.51;43.70;102079.59;5073109;28;19920;-66
2023/04/04 09:07:05;;;;;;;;;;;;;;;6.64;43.70;102100.31;5073571;28;19920;-62
2023/04/04 09:09:33;;;;;;;;;;;;;;;6.38;43.35;102084.63;5064189;28;19947;-62
2023/04/04 09:12:00;;;;;;;;;;;;;;;6.44;42.97;102084.44;5071963;28;19928;-62
2023/04/04 09:14:28;;;;;;;;;;;;;;;6.76;42.56;102070.88;5068260;28;19927;-62
2023/04/04 09:16:55;;;;;;;;;;;;;;;7.05;42.22;102071.47;5067187;28;19921;-62
2023/04/04 09:19:22;;;;;;;;;;;;;;;7.12;42.08;102072.94;5064810;28;20263;-63
2023/04/04 09:21:52;;;;;;;;;;;;;;;7.25;41.11;102075.28;5056637;28;19921;-60
2023/04/04 09:24:19;;;;;;;;;;;;;;;7.10;40.84;102079.75;5061305;28;19924;-61
2023/04/04 09:26:47;;;;;;;;;;;;;;;6.96;41.54;102073.06;5072736;28;19935;-62
2023/04/04 09:29:16;;;;;;;;;;;;;;;7.08;41.83;102065.50;5065954;28;19925;-61
2023/04/04 09:31:45;;;;;;;;;;;;;;;7.09;41.96;102070.72;5060999;28;20397;-62
2023/04/04 09:34:13;;;;;;;;;;;;;;;6.78;42.54;102075.00;5070255;28;19920;-61
2023/04/04 09:36:40;;;;;;;;;;;;;;;7.02;42.63;102072.84;5067700;28;19920;-62
2023/04/04 09:39:07;;;;;;;;;;;;;;;7.23;41.77;102084.84;5076206;28;19921;-63
2023/04/04 09:41:38;;;;;;;;;;;;;;;6.82;40.74;102073.44;5050382;28;19921;-62
2023/04/04 09:44:06;;;;;;;;;;;;;;;6.85;41.21;102077.56;5056329;28;19928;-62
2023/04/04 09:46:36;;;;;;;;;;;;;;;6.98;40.95;102079.06;5068351;28;19920;-61
2023/04/04 09:49:03;;;;;;;;;;;;;;;6.92;40.96;102075.47;5062348;28;19920;-61
2023/04/04 09:51:37;;;;;;;;;;;;;;;7.08;41.80;102076.47;5065890;28;19943;-62
2023/04/04 09:54:05;;;;;;;;;;;;;;;7.09;41.24;102069.91;5085975;28;19924;-63
2023/04/04 09:56:39;;;;;;;;;;;;;;;7.14;40.77;102061.72;5061841;28;19931;-62
2023/04/04 09:59:11;;;;;;;;;;;;;;;7.26;40.56;102057.75;5063632;28;19928;-62
2023/04/04 10:01:39;;;;;;;;;;;;;;;7.05;41.59;102057.78;5065416;28;19925;-62
2023/04/04 10:04:07;;;;;;;;;;;;;;;7.15;43.38;102072.44;5060821;28;19935;-61
2023/04/04 10:06:35;;;;;;;;;;;;;;;7.62;41.68;102056.16;5063182;28;19931;-62
2023/04/04 10:09:03;;;;;;;;;;;;;;;7.54;41.61;102065.72;5066535;28;19928;-60
2023/04/04 10:11:45;;;;;;;;;;;;;;;7.36;42.16;102054.28;5062631;28;19928;-63
2023/04/04 10:14:15;;;;;;;;;;;;;;;7.43;42.30;102061.19;5064092;28;20406;-60
2023/04/04 10:16:44;;;;;;;;;;;;;;;7.84;41.16;102055.00;5069439;28;19932;-62
2023/04/04 10:19:17;;;;;;;;;;;;;;;8.10;40.58;102064.22;5054204;28;19939;-62
2023/04/04 10:21:45;;;;;;;;;;;;;;;8.08;40.48;102071.06;5063803;28;19936;-62
2023/04/04 10:24:18;;;;;;;;;;;;;;;7.86;40.27;102050.03;5062286;28;19928;-61
2023/04/04 10:26:46;;;;;;;;;;;;;;;8.27;40.98;102050.34;5065704;28;19936;-61
2023/04/04 10:29:31;;;;;;;;;;;;;;;8.42;41.10;102048.50;5057184;28;19940;-61
2023/04/04 10:32:04;;;;;;;;;;;;;;;7.66;40.58;102063.63;5063853;28;19920;-59
2023/04/04 10:34:37;;;;;;;;;;;;;;;7.75;41.19;102040.09;5063722;28;19943;-60
2023/04/04 10:37:08;;;;;;;;;;;;;;;7.80;41.08;102048.38;5062405;28;19920;-58
2023/04/04 10:39:46;;;;;;;;;;;;;;;8.17;41.06;102042.88;5065679;28;19929;-59
2023/04/04 10:42:13;;;;;;;;;;;;;;;8.01;40.00;102063.06;5051745;28;19924;-60
2023/04/04 10:44:41;;;;;;;;;;;;;;;7.73;40.36;102063.38;5074260;28;20387;-61
2023/04/04 10:47:13;;;;;;;;;;;;;;;7.64;40.47;102048.50;5052598;28;19943;-60
2023/04/04 10:49:42;;;;;;;;;;;;;;;8.05;40.48;102052.38;5056335;28;19928;-58
2023/04/04 10:52:10;;;;;;;;;;;;;;;8.24;39.66;102051.72;5069294;28;19955;-60
2023/04/04 10:54:37;;;;;;;;;;;;;;;8.33;38.81;102047.41;5071856;28;19920;-59
2023/04/04 10:57:04;;;;;;;;;;;;;;;8.47;38.83;102043.03;5064206;28;19927;-59
2023/04/04 10:59:31;;;;;;;;;;;;;;;8.61;38.59;102046.97;5076343;28;19927;-61
2023/04/04 11:01:59;;;;;;;;;;;;;;;8.78;38.60;102049.50;5050817;28;19920;-60
2023/04/04 11:04:41;;;;;;;;;;;;;;;8.66;38.00;102041.50;5078330;28;19924;-61
2023/04/04 11:07:09;;;;;;;;;;;;;;;8.43;38.75;102030.97;5071552;28;19921;-62
2023/04/04 11:09:45;;;;;;;;;;;;;;;8.44;39.28;102015.31;5060749;28;19924;-61
2023/04/04 11:12:19;;;;;;;;;;;;;;;8.50;39.22;102020.56;5073675;28;19920;-58
2023/04/04 11:14:56;;;;;;;;;;;;;;;8.66;39.24;102018.72;5073798;28;19929;-60
2023/04/04 11:18:00;;;;;;;;;;;;;;;8.48;39.00;102014.50;5071011;28;20273;-60
2023/04/04 11:20:34;;;;;;;;;;;;;;;8.53;39.80;102019.19;4989442;28;19925;-62
2023/04/04 11:23:05;;;;;;;;;;;;;;;8.65;39.52;102011.53;5065246;28;19928;-58
2023/04/04 11:25:36;;;;;;;;;;;;;;;8.77;39.57;102012.97;5071467;28;20399;-61
2023/04/04 11:28:04;;;;;;;;;;;;;;;8.90;38.63;102001.47;5068900;28;19943;-60
2023/04/04 11:30:34;;;;;;;;;;;;;;;8.91;38.44;102008.63;5072188;28;19955;-61
2023/04/04 11:33:01;;;;;;;;;;;;;;;8.58;38.78;102006.31;5069595;28;19921;-59
2023/04/04 11:35:36;;;;;;;;;;;;;;;8.69;38.75;102002.50;5065802;28;19928;-59
2023/04/04 11:38:05;;;;;;;;;;;;;;;8.40;39.23;102008.72;5074686;28;19928;-62
2023/04/04 11:40:36;;;;;;;;;;;;;;;8.71;39.30;102005.00;5055782;28;19935;-60
2023/04/04 11:43:07;;;;;;;;;;;;;;;8.84;38.63;101987.97;5070798;28;19924;-61
2023/04/04 11:45:35;;;;;;;;;;;;;;;8.83;38.54;101989.09;5074179;28;19928;-60
2023/04/04 11:48:02;;;;;;;;;;;;;;;8.77;38.41;101998.44;5064516;28;19921;-59
2023/04/04 11:50:34;;;;;;;;;;;;;;;8.96;38.08;101992.13;5066614;28;19935;-60
2023/04/04 11:53:04;;;;;;;;;;;;;;;8.77;38.55;101988.25;5069386;28;20299;-57
2023/04/04 11:55:31;;;;;;;;;;;;;;;8.92;38.15;101990.22;5058803;28;19928;-57
2023/04/04 11:58:08;;;;;;;;;;;;;;;8.92;38.22;101992.97;5038285;28;19929;-60
2023/04/04 12:00:38;;;;;;;;;;;;;;;8.56;39.12;101986.53;5067043;28;19931;-59
2023/04/04 12:03:07;;;;;;;;;;;;;;;8.72;38.63;101982.75;5073077;28;19924;-60
2023/04/04 12:05:34;;;;;;;;;;;;;;;9.26;38.37;101979.56;5077069;28;19935;-61
2023/04/04 12:08:02;;;;;;;;;;;;;;;8.91;38.43;101970.16;5069487;28;20375;-60
2023/04/04 12:10:30;;;;;;;;;;;;;;;9.51;37.83;101968.53;5061233;28;20673;-60
2023/04/04 12:12:58;;;;;;;;;;;;;;;9.61;37.05;101966.59;5059279;28;19928;-59
2023/04/04 12:15:26;;;;;;;;;;;;;;;9.21;38.14;101954.78;5059882;28;19927;-59
2023/04/04 12:17:54;;;;;;;;;;;;;;;9.37;38.70;101953.69;5069469;28;19920;-59
2023/04/04 12:20:22;;;;;;;;;;;;;;;9.37;38.43;101946.28;5059716;28;19924;-60
2023/04/04 12:22:50;;;;;;;;;;;;;;;9.52;38.46;101959.22;5042812;28;19921;-58
2023/04/04 12:25:18;;;;;;;;;;;;;;;9.48;38.65;101950.69;5059440;28;20314;-59
2023/04/04 12:27:46;;;;;;;;;;;;;;;9.78;37.33;101956.13;5069495;28;19932;-59
2023/04/04 12:30:14;;;;;;;;;;;;;;;10.02;36.69;101956.34;5062009;28;19946;-61
2023/04/04 12:32:46;;;;;;;;;;;;;;;10.11;37.04;101963.78;5054691;28;19931;-58
2023/04/04 12:35:14;;;;;;;;;;;;;;;10.15;35.90;101969.56;5070396;28;20287;-60
2023/04/04 12:38:01;;;;;;;;;;;;;;;10.02;36.07;101968.16;5066845;28;20299;-59
2023/04/04 12:40:29;;;;;;;;;;;;;;;10.08;35.86;101960.72;5066513;28;19928;-58
2023/04/04 12:42:56;;;;;;;;;;;;;;;10.10;35.63;101944.78;5056160;28;19924;-59
2023/04/04 12:45:24;;;;;;;;;;;;;;;9.96;33.97;101955.53;5070661;28;19924;-60
2023/04/04 12:47:56;;;;;;;;;;;;;;;9.75;34.22;101950.34;5066165;28;20020;-59
2023/04/04 12:50:26;;;;;;;;;;;;;;;9.83;35.22;101947.06;5064786;28;19928;-60
2023/04/04 12:52:53;;;;;;;;;;;;;;;9.93;35.13;101947.03;5066837;28;19924;-59
2023/04/04 12:55:34;;;;;;;;;;;;;;;10.06;35.05;101946.41;5065530;28;19943;-60